createdAt,value
2023-01-04T00:00:28.494Z,5.78
2023-01-04T00:03:31.965Z,5.70
2023-01-04T00:06:33.554Z,5.60
2023-01-04T00:09:34.948Z,5.54
2023-01-04T00:12:36.795Z,5.39
2023-01-04T00:15:38.328Z,5.33
2023-01-04T00:18:41.430Z,5.28
2023-01-04T00:21:42.833Z,5.29
2023-01-04T00:24:44.215Z,5.24
2023-01-04T00:27:45.606Z,5.18
2023-01-04T00:30:47.050Z,5.11
2023-01-04T00:33:48.510Z,5.10
2023-01-04T00:36:49.931Z,4.98
2023-01-04T00:39:51.325Z,4.85
2023-01-04T00:42:52.697Z,4.76
2023-01-04T00:45:54.326Z,4.80
2023-01-04T00:49:00.109Z,4.85
2023-01-04T00:52:03.564Z,4.86
2023-01-04T00:55:05.268Z,4.86
2023-01-04T00:58:07.244Z,4.87
2023-01-04T01:01:09.339Z,4.89
2023-01-04T01:04:16.315Z,4.96
2023-01-04T01:07:17.823Z,5.02
2023-01-04T01:10:20.303Z,5.09
2023-01-04T01:13:23.134Z,5.12
2023-01-04T01:19:47.418Z,5.22
2023-01-04T01:22:48.820Z,5.25
2023-01-04T01:25:50.623Z,5.29
2023-01-04T01:28:52.731Z,5.28
2023-01-04T01:31:54.438Z,5.29
2023-01-04T01:34:55.955Z,5.31
2023-01-04T01:37:57.321Z,5.27
2023-01-04T01:40:58.785Z,5.24
2023-01-04T01:44:04.149Z,5.18
2023-01-04T01:47:05.629Z,5.19
2023-01-04T01:50:26.882Z,5.15
2023-01-04T01:53:32.030Z,5.15
2023-01-04T01:56:37.857Z,5.20
2023-01-04T01:59:42.532Z,5.30
2023-01-04T02:03:03.696Z,5.34
2023-01-04T02:06:08.490Z,5.40
2023-01-04T02:09:09.951Z,5.42
2023-01-04T02:12:12.291Z,5.36
2023-01-04T02:15:14.038Z,5.42
2023-01-04T02:18:24.428Z,5.53
2023-01-04T02:21:44.943Z,5.55
2023-01-04T02:25:05.031Z,5.53
2023-01-04T02:28:39.381Z,5.51
2023-01-04T02:31:48.164Z,5.56
2023-01-04T02:35:15.333Z,5.58
2023-01-04T02:38:31.258Z,5.60
2023-01-04T02:41:50.648Z,5.62
2023-01-04T02:45:04.343Z,5.67
2023-01-04T02:48:25.586Z,5.72
2023-01-04T02:51:34.251Z,5.78
2023-01-04T02:54:36.289Z,5.79
2023-01-04T02:57:58.247Z,5.78
2023-01-04T03:01:32.069Z,5.83
2023-01-04T03:05:33.966Z,5.78
2023-01-04T03:08:45.785Z,5.80
2023-01-04T03:12:16.532Z,5.75
2023-01-04T03:15:25.256Z,5.67
2023-01-04T03:18:29.159Z,5.61
2023-01-04T03:21:33.059Z,5.51
2023-01-04T03:24:53.181Z,5.51
2023-01-04T03:28:14.542Z,5.52
2023-01-04T03:31:53.080Z,5.51
2023-01-04T03:35:13.714Z,5.55
2023-01-04T03:39:06.735Z,5.57
2023-01-04T03:42:46.099Z,5.64
2023-01-04T03:46:14.681Z,5.61
2023-01-04T03:49:26.391Z,5.64
2023-01-04T03:52:30.907Z,5.63
2023-01-04T03:55:35.121Z,5.65
2023-01-04T03:58:37.485Z,5.76
2023-01-04T04:01:41.551Z,5.72
2023-01-04T04:05:02.127Z,5.68
2023-01-04T04:08:22.950Z,5.76
2023-01-04T04:11:30.214Z,5.73
2023-01-04T04:14:31.622Z,5.71
2023-01-04T04:17:33.022Z,5.74
2023-01-04T04:20:34.922Z,5.81
2023-01-04T04:23:36.310Z,5.83
2023-01-04T04:26:37.699Z,5.86
2023-01-04T04:29:39.108Z,5.88
2023-01-04T04:32:40.539Z,5.90
2023-01-04T04:35:41.927Z,5.93
2023-01-04T04:38:43.371Z,5.98
2023-01-04T04:41:44.763Z,5.99
2023-01-04T04:44:46.166Z,6.04
2023-01-04T04:47:47.572Z,6.11
2023-01-04T04:50:48.985Z,6.12
2023-01-04T04:53:50.451Z,6.14
2023-01-04T04:56:51.845Z,6.11
2023-01-04T04:59:53.259Z,6.19
2023-01-04T05:02:57.949Z,6.25
2023-01-04T05:05:59.733Z,6.30
2023-01-04T05:09:01.209Z,6.28
2023-01-04T05:12:21.065Z,6.26
2023-01-04T05:15:22.578Z,6.37
2023-01-04T05:18:24.024Z,6.32
2023-01-04T05:21:25.403Z,6.31
2023-01-04T05:24:26.791Z,6.31
2023-01-04T05:27:28.246Z,6.31
2023-01-04T05:30:48.234Z,6.35
2023-01-04T05:33:49.646Z,6.41
2023-01-04T05:36:51.047Z,6.35
2023-01-04T05:39:52.427Z,6.38
2023-01-04T05:42:53.851Z,6.38
2023-01-04T05:45:56.689Z,6.37
2023-01-04T05:48:58.394Z,6.36
2023-01-04T05:51:59.768Z,6.33
2023-01-04T05:55:01.400Z,6.35
2023-01-04T05:58:03.277Z,6.32
2023-01-04T06:01:07.580Z,6.36
2023-01-04T06:04:09.096Z,6.35
2023-01-04T06:07:10.691Z,6.34
2023-01-04T06:10:14.491Z,6.34
2023-01-04T06:13:15.858Z,6.33
2023-01-04T06:16:17.286Z,6.35
2023-01-04T06:19:18.749Z,6.34
2023-01-04T06:22:20.762Z,6.36
2023-01-04T06:25:22.294Z,6.41
2023-01-04T06:28:23.670Z,6.37
2023-01-04T06:31:25.095Z,6.43
2023-01-04T06:34:30.906Z,6.45
2023-01-04T06:37:32.969Z,6.41
2023-01-04T06:40:34.349Z,6.47
2023-01-04T06:43:35.727Z,6.45
2023-01-04T06:46:37.169Z,6.42
2023-01-04T06:49:38.635Z,6.48
2023-01-04T06:52:40.992Z,6.50
2023-01-04T06:55:44.198Z,6.58
2023-01-04T06:58:45.645Z,6.50
2023-01-04T07:01:47.139Z,6.53
2023-01-04T07:04:48.761Z,6.51
2023-01-04T07:07:50.198Z,6.58
2023-01-04T07:10:52.034Z,6.57
2023-01-04T07:13:53.508Z,6.62
2023-01-04T07:16:54.927Z,6.63
2023-01-04T07:19:56.324Z,6.62
2023-01-04T07:22:57.734Z,6.65
2023-01-04T07:26:02.867Z,6.66
2023-01-04T07:29:14.520Z,6.66
2023-01-04T07:32:16.416Z,6.68
2023-01-04T07:35:17.929Z,6.70
2023-01-04T07:38:19.330Z,6.71
2023-01-04T07:41:20.727Z,6.74
2023-01-04T07:44:22.130Z,6.77
2023-01-04T07:47:23.520Z,6.81
2023-01-04T07:50:24.898Z,6.81
2023-01-04T07:53:26.366Z,6.86
2023-01-04T07:56:27.884Z,6.82
2023-01-04T07:59:29.374Z,6.78
2023-01-04T08:02:30.901Z,6.75
2023-01-04T08:05:33.882Z,6.79
2023-01-04T08:08:35.569Z,6.83
2023-01-04T08:11:37.054Z,6.84
2023-01-04T08:14:38.479Z,6.88
2023-01-04T08:17:39.876Z,6.91
2023-01-04T08:20:41.259Z,6.95
2023-01-04T08:23:42.728Z,6.99
2023-01-04T08:26:45.126Z,7.07
2023-01-04T08:29:46.623Z,7.17
2023-01-04T08:32:48.762Z,7.20
2023-01-04T08:35:50.218Z,7.17
2023-01-04T08:39:02.442Z,7.20
2023-01-04T08:42:18.690Z,7.28
2023-01-04T08:45:22.075Z,7.36
2023-01-04T08:48:24.906Z,7.56
2023-01-04T08:51:26.682Z,7.70
2023-01-04T08:54:28.095Z,7.87
2023-01-04T08:57:29.537Z,8.04
2023-01-04T09:00:31.042Z,8.17
2023-01-04T09:03:32.978Z,8.18
2023-01-04T09:06:35.261Z,8.29
2023-01-04T09:09:36.729Z,8.30
2023-01-04T09:12:38.612Z,8.42
2023-01-04T09:15:40.168Z,8.60
2023-01-04T09:18:41.821Z,8.55
2023-01-04T09:21:43.268Z,8.73
2023-01-04T09:24:44.788Z,8.80
2023-01-04T09:27:46.191Z,8.79
2023-01-04T09:30:47.615Z,8.81
2023-01-04T09:34:14.020Z,8.94
2023-01-04T09:37:10.427Z,9.01
2023-01-04T09:40:22.216Z,9.02
2023-01-04T09:43:23.923Z,9.19
2023-01-04T09:46:32.457Z,9.18
2023-01-04T09:49:52.805Z,9.20
2023-01-04T09:53:18.283Z,9.29
2023-01-04T09:56:28.735Z,9.29
2023-01-04T09:59:32.581Z,9.37
2023-01-04T10:02:42.191Z,9.30
2023-01-04T10:05:43.850Z,9.33
2023-01-04T10:08:45.447Z,9.36
2023-01-04T10:12:29.313Z,9.33
2023-01-04T10:15:40.449Z,9.37
2023-01-04T10:19:51.055Z,9.48
2023-01-04T10:22:37.779Z,9.45
2023-01-04T10:25:43.398Z,9.51
2023-01-04T10:29:19.092Z,9.49
2023-01-04T10:32:37.438Z,9.47
2023-01-04T10:35:40.964Z,9.49
2023-01-04T10:38:43.043Z,9.45
2023-01-04T10:42:10.528Z,9.58
2023-01-04T10:45:22.323Z,9.46
2023-01-04T10:48:42.903Z,9.41
2023-01-04T10:52:10.861Z,9.44
2023-01-04T10:55:25.067Z,9.43
2023-01-04T10:58:33.576Z,9.49
2023-01-04T11:01:42.004Z,9.49
2023-01-04T11:04:52.431Z,9.52
2023-01-04T11:08:03.018Z,9.47
2023-01-04T11:11:11.144Z,9.47
2023-01-04T11:14:14.207Z,9.54
2023-01-04T11:17:15.896Z,9.65
2023-01-04T11:20:17.533Z,9.65
2023-01-04T11:23:20.569Z,9.63
2023-01-04T11:26:29.194Z,9.59
2023-01-04T11:29:35.125Z,9.62
2023-01-04T11:33:00.731Z,9.61
2023-01-04T11:36:03.225Z,9.67
2023-01-04T11:39:07.314Z,9.67
2023-01-04T11:42:20.061Z,9.58
2023-01-04T11:45:24.990Z,9.51
2023-01-04T11:48:46.467Z,9.49
2023-01-04T11:51:47.859Z,9.62
2023-01-04T11:54:49.309Z,9.61
2023-01-04T11:58:14.729Z,9.58
2023-01-04T12:01:22.928Z,9.59
2023-01-04T12:04:27.418Z,9.54
2023-01-04T12:07:33.880Z,9.64
2023-01-04T12:10:35.344Z,9.65
2023-01-04T12:13:37.753Z,9.70
2023-01-04T12:17:01.667Z,9.76
2023-01-04T12:20:16.506Z,9.83
2023-01-04T12:23:20.500Z,9.94
2023-01-04T12:26:23.439Z,9.93
2023-01-04T12:29:24.800Z,9.93
2023-01-04T12:32:26.201Z,9.93
2023-01-04T12:35:58.604Z,10.02
2023-01-04T12:39:12.034Z,10.05
2023-01-04T12:42:18.611Z,10.07
2023-01-04T12:45:21.994Z,10.07
2023-01-04T12:48:52.107Z,10.08
2023-01-04T12:55:33.049Z,10.19
2023-01-04T12:59:06.989Z,10.21
2023-01-04T13:02:19.337Z,10.29
2023-01-04T13:05:55.634Z,10.25
2023-01-04T13:08:44.230Z,10.30
2023-01-04T13:12:04.512Z,10.32
2023-01-04T13:15:43.523Z,10.41
2023-01-04T13:18:56.982Z,10.41
2023-01-04T13:21:59.268Z,10.43
2023-01-04T13:25:02.896Z,10.53
2023-01-04T13:28:05.188Z,10.52
2023-01-04T13:31:06.659Z,10.48
2023-01-04T13:34:17.961Z,10.49
2023-01-04T13:37:26.985Z,10.47
2023-01-04T13:40:37.980Z,10.56
2023-01-04T13:44:02.327Z,10.50
2023-01-04T13:47:03.885Z,10.53
2023-01-04T13:50:13.823Z,10.61
2023-01-04T13:53:33.554Z,10.59
2023-01-04T13:56:35.440Z,10.52
2023-01-04T13:59:37.362Z,10.47
2023-01-04T14:02:38.990Z,10.46
2023-01-04T14:05:47.973Z,10.33
2023-01-04T14:08:53.688Z,10.30
2023-01-04T14:12:08.346Z,10.30
2023-01-04T14:15:29.264Z,10.24
2023-01-04T14:18:31.390Z,10.26
2023-01-04T14:21:36.233Z,10.32
2023-01-04T14:28:30.537Z,10.32
2023-01-04T14:31:34.863Z,10.37
2023-01-04T14:34:36.286Z,10.32
2023-01-04T14:37:37.704Z,10.34
2023-01-04T14:40:39.344Z,10.37
2023-01-04T14:43:54.648Z,10.52
2023-01-04T14:46:59.110Z,10.51
2023-01-04T14:50:00.577Z,10.46
2023-01-04T14:53:02.320Z,10.46
2023-01-04T14:56:04.014Z,10.49
2023-01-04T14:59:05.556Z,10.48
2023-01-04T15:02:10.121Z,10.55
2023-01-04T15:05:11.816Z,10.55
2023-01-04T15:08:13.368Z,10.61
2023-01-04T15:11:15.725Z,10.55
2023-01-04T15:14:18.715Z,10.61
2023-01-04T15:17:20.118Z,10.60
2023-01-04T15:20:22.102Z,10.60
2023-01-04T15:23:23.559Z,10.69
2023-01-04T15:26:25.124Z,10.74
2023-01-04T15:29:26.624Z,10.74
2023-01-04T15:32:28.093Z,10.67
2023-01-04T15:35:29.507Z,10.63
2023-01-04T15:38:30.924Z,10.65
2023-01-04T15:41:51.502Z,10.63
2023-01-04T15:44:52.878Z,10.63
2023-01-04T15:47:57.463Z,10.61
2023-01-04T15:51:07.522Z,10.61
2023-01-04T15:54:09.040Z,10.60
2023-01-04T15:57:10.440Z,10.61
2023-01-04T16:00:12.384Z,10.63
2023-01-04T16:03:13.742Z,10.62
2023-01-04T16:06:16.783Z,10.60
2023-01-04T16:09:18.189Z,10.57
2023-01-04T16:12:38.292Z,10.52
2023-01-04T16:15:39.751Z,10.56
2023-01-04T16:18:48.934Z,10.53
2023-01-04T16:21:50.380Z,10.54
2023-01-04T16:28:13.349Z,10.48
2023-01-04T16:31:14.760Z,10.43
2023-01-04T16:34:16.515Z,10.45
2023-01-04T16:37:18.687Z,10.41
2023-01-04T16:40:20.990Z,10.41
2023-01-04T16:43:22.388Z,10.36
2023-01-04T16:46:25.995Z,10.32
2023-01-04T16:49:27.411Z,10.34
2023-01-04T16:52:29.980Z,10.32
2023-01-04T16:55:31.494Z,10.22
2023-01-04T16:58:33.075Z,10.26
2023-01-04T17:01:40.415Z,10.30
2023-01-04T17:04:52.788Z,10.29
2023-01-04T17:07:54.266Z,10.32
2023-01-04T17:11:01.535Z,10.31
2023-01-04T17:14:13.485Z,10.31
2023-01-04T17:17:14.948Z,10.31
2023-01-04T17:20:16.467Z,10.24
2023-01-04T17:23:19.567Z,10.29
2023-01-04T17:26:24.819Z,10.23
2023-01-04T17:29:26.294Z,10.19
2023-01-04T17:32:27.807Z,10.14
2023-01-04T17:35:29.209Z,10.14
2023-01-04T17:38:31.080Z,10.16
2023-01-04T17:41:32.501Z,10.20
2023-01-04T17:44:33.892Z,10.14
2023-01-04T17:47:35.314Z,10.09
2023-01-04T17:50:36.833Z,10.11
2023-01-04T17:53:39.208Z,10.08
2023-01-04T17:56:40.720Z,10.03
2023-01-04T17:59:42.094Z,10.03
2023-01-04T18:02:44.107Z,9.99
2023-01-04T18:06:07.220Z,9.98
2023-01-04T18:09:18.525Z,9.99
2023-01-04T18:12:23.545Z,9.98
2023-01-04T18:15:24.951Z,10.03
2023-01-04T18:18:26.401Z,10.02
2023-01-04T18:21:30.824Z,10.05
2023-01-04T18:24:36.693Z,10.02
2023-01-04T18:27:39.073Z,10.06
2023-01-04T18:30:40.502Z,10.06
2023-01-04T18:33:43.700Z,10.07
2023-01-04T18:36:45.780Z,10.10
2023-01-04T18:39:48.278Z,10.02
2023-01-04T18:42:50.537Z,10.01
2023-01-04T18:45:52.046Z,9.98
2023-01-04T18:48:58.815Z,9.99
2023-01-04T18:52:00.251Z,9.97
2023-01-04T18:55:01.701Z,10.01
2023-01-04T18:58:03.097Z,10.00
2023-01-04T19:01:08.741Z,9.92
2023-01-04T19:04:11.321Z,9.92
2023-01-04T19:07:12.783Z,9.89
2023-01-04T19:10:14.224Z,9.89
2023-01-04T19:13:15.606Z,9.89
2023-01-04T19:16:17.046Z,9.90
2023-01-04T19:19:18.699Z,9.86
2023-01-04T19:22:20.089Z,9.93
2023-01-04T19:25:27.895Z,10.02
2023-01-04T19:28:29.717Z,9.94
2023-01-04T19:31:31.217Z,9.92
2023-01-04T19:34:32.674Z,9.95
2023-01-04T19:37:34.152Z,9.97
2023-01-04T19:40:35.995Z,10.03
2023-01-04T19:43:37.436Z,10.10
2023-01-04T19:46:39.559Z,10.09
2023-01-04T19:49:41.035Z,10.10
2023-01-04T19:52:42.437Z,10.14
2023-01-04T19:55:43.879Z,10.19
2023-01-04T19:58:45.724Z,10.18
2023-01-04T20:01:47.301Z,10.16
2023-01-04T20:04:48.819Z,10.23
2023-01-04T20:07:51.114Z,10.24
2023-01-04T20:10:54.237Z,10.33
2023-01-04T20:13:55.625Z,10.39
2023-01-04T20:16:57.036Z,10.38
2023-01-04T20:19:58.446Z,10.37
2023-01-04T20:22:59.867Z,10.39
2023-01-04T20:26:11.379Z,10.45
2023-01-04T20:29:13.135Z,10.51
2023-01-04T20:32:14.567Z,10.51
2023-01-04T20:35:15.982Z,10.48
2023-01-04T20:38:17.351Z,10.59
2023-01-04T20:41:22.813Z,10.65
2023-01-04T20:44:24.199Z,10.63
2023-01-04T20:47:25.632Z,10.67
2023-01-04T20:50:27.013Z,10.68
2023-01-04T20:53:30.021Z,10.79
2023-01-04T20:56:37.327Z,10.74
2023-01-04T20:59:38.727Z,10.69
2023-01-04T21:02:40.335Z,10.64
2023-01-04T21:05:44.304Z,10.71
2023-01-04T21:08:46.445Z,10.66
2023-01-04T21:11:47.932Z,10.72
2023-01-04T21:14:49.364Z,10.78
2023-01-04T21:17:50.797Z,10.78
2023-01-04T21:20:52.785Z,10.80
2023-01-04T21:23:57.978Z,10.77
2023-01-04T21:27:00.519Z,10.78
2023-01-04T21:30:02.140Z,10.88
2023-01-04T21:33:03.744Z,10.87
2023-01-04T21:36:10.995Z,10.93
2023-01-04T21:39:12.697Z,10.90
2023-01-04T21:42:14.085Z,10.89
2023-01-04T21:45:15.617Z,11.02
2023-01-04T21:48:17.120Z,11.10
2023-01-04T21:51:18.623Z,11.16
2023-01-04T21:54:20.053Z,11.28
2023-01-04T21:57:21.456Z,11.25
2023-01-04T22:00:22.854Z,11.35
2023-01-04T22:03:24.805Z,11.26
2023-01-04T22:06:26.291Z,11.25
2023-01-04T22:09:27.712Z,11.26
2023-01-04T22:12:29.136Z,11.29
2023-01-04T22:15:30.827Z,11.21
2023-01-04T22:18:32.340Z,11.18
2023-01-04T22:21:33.748Z,11.18
2023-01-04T22:24:38.004Z,11.12
2023-01-04T22:27:39.883Z,11.10
2023-01-04T22:30:41.930Z,11.09
2023-01-04T22:33:43.651Z,11.14
2023-01-04T22:36:45.172Z,11.23
2023-01-04T22:39:46.585Z,11.18
2023-01-04T22:42:48.147Z,11.19
2023-01-04T22:45:49.580Z,11.17
2023-01-04T22:48:51.173Z,11.17
2023-01-04T22:51:55.340Z,11.16
2023-01-04T22:54:56.790Z,11.06
2023-01-04T22:57:58.191Z,11.00
2023-01-04T23:00:59.556Z,10.97
2023-01-04T23:04:02.285Z,11.02
2023-01-04T23:07:03.747Z,10.99
2023-01-04T23:10:06.175Z,10.98
2023-01-04T23:13:07.630Z,11.02
2023-01-04T23:16:15.028Z,11.04
2023-01-04T23:19:16.612Z,11.01
2023-01-04T23:22:18.050Z,11.04
2023-01-04T23:25:19.453Z,11.01
2023-01-04T23:28:20.898Z,11.05
2023-01-04T23:31:25.106Z,11.00
2023-01-04T23:34:26.662Z,11.05
2023-01-04T23:37:28.032Z,11.01
2023-01-04T23:40:29.434Z,11.08
2023-01-04T23:43:30.859Z,11.02
2023-01-04T23:46:32.249Z,10.99
2023-01-04T23:49:37.930Z,10.92
2023-01-04T23:52:39.426Z,10.93
2023-01-04T23:55:40.812Z,10.92
2023-01-04T23:58:42.327Z,10.89
